Time;durP1;ratioP1;P1;durP2;ratioP2;P2;SDS_P1;SDS_P2;PMS_P1;PMS_P2;Temp;Humidity;BMP_temperature;BMP_pressure;BME280_temperature;BME280_humidity;BME280_pressure;Samples;Min_cycle;Max_cycle;Signal;HPM_P1;HPM_P2
2022/03/21 00:01:27;;;;;;;11.70;10.50;;;;;;;20.43;36.84;103128.13;5015882;28;20042;-83
2022/03/21 00:03:55;;;;;;;11.43;10.07;;;;;;;20.42;37.02;103129.94;4998543;28;20058;-83
2022/03/21 00:06:23;;;;;;;12.05;10.43;;;;;;;20.42;36.81;103118.31;4997614;28;20054;-83
2022/03/21 00:08:50;;;;;;;12.43;10.73;;;;;;;20.42;36.66;103131.75;5015147;28;20049;-83
2022/03/21 00:11:18;;;;;;;11.10;10.02;;;;;;;20.41;36.42;103122.78;5014766;28;20056;-83
2022/03/21 00:13:46;;;;;;;11.45;9.85;;;;;;;20.42;36.74;103123.69;5014477;28;20049;-83
2022/03/21 00:16:13;;;;;;;13.23;10.50;;;;;;;20.42;36.90;103129.06;4998232;28;20054;-83
2022/03/21 00:18:41;;;;;;;12.38;10.50;;;;;;;20.42;36.61;103131.75;5014586;28;20042;-83
2022/03/21 00:21:08;;;;;;;11.40;10.07;;;;;;;20.40;36.56;103126.44;4995971;28;20409;-83
2022/03/21 00:23:36;;;;;;;11.02;9.93;;;;;;;20.41;36.40;103130.88;5015884;28;20046;-83
2022/03/21 00:26:04;;;;;;;12.38;11.07;;;;;;;20.41;36.52;103130.00;5016059;28;20046;-83
2022/03/21 00:28:32;;;;;;;12.73;10.82;;;;;;;20.40;36.55;103128.28;5015109;28;20057;-83
2022/03/21 00:30:59;;;;;;;12.25;11.05;;;;;;;20.39;36.41;103124.72;4999073;28;20053;-84
2022/03/21 00:33:27;;;;;;;16.63;11.13;;;;;;;20.40;36.61;103125.59;4997590;28;20046;-83
2022/03/21 00:35:58;;;;;;;13.18;10.95;;;;;;;20.40;36.46;103128.28;4996510;28;20076;-84
2022/03/21 00:38:26;;;;;;;11.82;10.63;;;;;;;20.40;36.59;103133.66;5014383;28;20397;-84
2022/03/21 00:40:54;;;;;;;11.73;10.52;;;;;;;20.38;36.43;103131.06;5013722;28;20069;-85
2022/03/21 00:43:23;;;;;;;12.35;11.13;;;;;;;20.38;36.48;103127.50;4996496;28;20350;-85
2022/03/21 00:45:52;;;;;;;12.15;10.77;;;;;;;20.38;36.59;103138.25;4997131;28;20050;-85
2022/03/21 00:48:22;;;;;;;12.30;10.75;;;;;;;20.38;36.36;103135.56;4997368;28;20046;-85
2022/03/21 00:50:50;;;;;;;11.73;10.52;;;;;;;20.37;36.34;103126.59;5014706;28;20053;-85
2022/03/21 00:53:19;;;;;;;11.80;10.50;;;;;;;20.38;36.32;103122.13;5014731;28;20050;-85
2022/03/21 00:55:48;;;;;;;13.07;11.65;;;;;;;20.37;36.24;103123.91;5025102;28;20504;-84
2022/03/21 00:58:16;;;;;;;12.55;11.25;;;;;;;20.37;36.13;103123.06;5014812;28;20490;-84
2022/03/21 01:00:44;;;;;;;13.20;11.63;;;;;;;20.36;36.25;103118.63;4998189;28;20062;-85
2022/03/21 01:03:12;;;;;;;12.93;11.50;;;;;;;20.36;36.13;103115.94;4996635;28;20053;-84
2022/03/21 01:05:40;;;;;;;12.10;10.88;;;;;;;20.36;35.99;103118.63;5029041;28;20065;-85
2022/03/21 01:08:07;;;;;;;12.27;11.07;;;;;;;20.36;36.05;103121.31;4996465;28;20449;-84
2022/03/21 01:10:35;;;;;;;13.57;11.13;;;;;;;20.36;35.99;103121.31;4996479;28;20053;-84
2022/03/21 01:13:03;;;;;;;12.90;11.60;;;;;;;20.35;35.99;103117.75;4993956;28;20061;-84
2022/03/21 01:15:31;;;;;;;12.60;11.40;;;;;;;20.36;35.94;103121.31;5027418;28;20046;-84
2022/03/21 01:17:58;;;;;;;12.65;11.32;;;;;;;20.33;36.10;103119.66;5014116;28;20053;-84
2022/03/21 01:20:26;;;;;;;12.90;11.55;;;;;;;20.35;35.95;103115.06;5014863;28;20046;-85
2022/03/21 01:22:54;;;;;;;13.10;11.60;;;;;;;20.33;35.92;103114.28;5014190;28;20404;-84
2022/03/21 01:25:22;;;;;;;12.07;10.98;;;;;;;20.35;35.84;103119.59;5013156;28;20046;-82
2022/03/21 01:27:49;;;;;;;11.77;10.43;;;;;;;20.33;35.79;103116.09;5013189;28;20061;-83
2022/03/21 01:30:17;;;;;;;12.07;10.88;;;;;;;20.34;35.70;103117.84;5013389;28;20033;-84
2022/03/21 01:32:45;;;;;;;12.70;11.43;;;;;;;20.34;35.64;103125.94;4996174;28;20058;-83
2022/03/21 01:35:16;;;;;;;12.82;11.52;;;;;;;20.33;35.80;103118.78;5033873;28;20416;-84
2022/03/21 01:37:46;;;;;;;12.27;11.07;;;;;;;20.33;35.60;103118.78;5033901;28;20879;-84
2022/03/21 01:40:16;;;;;;;11.77;10.63;;;;;;;20.33;35.92;103122.34;5014163;28;20389;-83
2022/03/21 01:42:47;;;;;;;12.88;11.57;;;;;;;20.33;35.76;103126.84;4995368;28;20053;-83
2022/03/21 01:45:17;;;;;;;11.98;10.95;;;;;;;20.32;35.72;103125.13;5011787;28;20405;-83
2022/03/21 01:47:46;;;;;;;13.40;12.10;;;;;;;20.32;35.65;103125.13;4996825;28;20050;-83
2022/03/21 01:50:14;;;;;;;12.35;11.13;;;;;;;20.32;35.65;103130.50;5013559;28;20378;-83
2022/03/21 01:52:43;;;;;;;13.02;11.45;;;;;;;20.31;35.41;103120.72;4996675;28;20054;-83
2022/03/21 01:57:58;;;;;;;12.15;10.48;;;;;;;20.31;35.55;103123.41;5012876;28;20050;-83
2022/03/21 02:00:26;;;;;;;11.48;10.38;;;;;;;20.30;35.67;103122.53;5012956;28;20057;-83
2022/03/21 02:02:54;;;;;;;12.77;11.52;;;;;;;20.30;35.43;103127.03;5013457;28;20394;-83
2022/03/21 02:05:22;;;;;;;12.88;11.60;;;;;;;20.29;35.84;103126.16;4995837;28;20046;-82
2022/03/21 02:07:50;;;;;;;11.23;10.23;;;;;;;20.29;35.60;103119.91;5012846;28;20064;-82
2022/03/21 02:10:17;;;;;;;12.60;11.32;;;;;;;20.29;35.59;103118.09;5013319;28;20042;-82
2022/03/21 02:12:45;;;;;;;12.98;11.68;;;;;;;20.29;35.65;103122.59;4994903;28;20094;-82
2022/03/21 02:15:13;;;;;;;13.10;11.75;;;;;;;20.28;35.47;103124.41;5011983;28;20042;-81
2022/03/21 02:17:45;;;;;;;12.38;11.07;;;;;;;20.27;35.60;103106.56;5012538;28;20049;-82
2022/03/21 02:20:17;;;;;;;12.43;11.23;;;;;;;20.27;35.67;103111.94;5013531;28;20046;-82
2022/03/21 02:22:58;;;;;;;12.73;11.43;;;;;;;20.28;35.28;103112.78;5013094;28;20095;-82
2022/03/21 02:25:34;;;;;;;12.48;11.30;;;;;;;20.27;35.27;103111.06;5013444;28;20057;-82
2022/03/21 02:28:06;;;;;;;13.13;11.75;;;;;;;20.27;35.46;103109.25;5013201;28;20065;-82
2022/03/21 02:30:41;;;;;;;11.93;10.80;;;;;;;20.26;35.33;103104.81;5012857;28;20050;-83
2022/03/21 02:33:11;;;;;;;12.82;11.52;;;;;;;20.26;35.36;103107.50;4995150;28;20061;-83
2022/03/21 02:35:43;;;;;;;11.95;10.57;;;;;;;20.25;35.09;103109.34;5013144;28;20064;-82
2022/03/21 02:38:12;;;;;;;12.10;10.93;;;;;;;20.26;35.10;103110.19;5012813;28;20061;-82
2022/03/21 02:40:39;;;;;;;12.25;10.95;;;;;;;20.26;35.04;103110.19;5012384;28;20053;-82
2022/03/21 02:43:06;;;;;;;12.80;11.48;;;;;;;20.25;35.45;103106.66;5026470;28;20058;-82
2022/03/21 02:45:34;;;;;;;12.13;10.93;;;;;;;20.25;35.35;103109.34;5012292;28;20041;-82
2022/03/21 02:48:01;;;;;;;11.38;10.18;;;;;;;20.26;35.26;103107.50;5012513;28;20401;-82
2022/03/21 02:50:29;;;;;;;12.85;11.55;;;;;;;20.25;35.36;103112.03;5012604;28;20155;-82
2022/03/21 02:52:57;;;;;;;11.43;10.32;;;;;;;20.24;35.32;103112.94;4994927;28;20053;-82
2022/03/21 02:55:25;;;;;;;11.50;10.23;;;;;;;20.24;35.30;103114.78;5012725;28;20060;-82
2022/03/21 02:57:52;;;;;;;12.38;10.35;;;;;;;20.25;35.14;103111.13;5047015;28;20442;-82
2022/03/21 03:00:20;;;;;;;11.00;10.00;;;;;;;20.23;35.19;103111.22;5125162;27;20062;-84
2022/03/21 03:02:47;;;;;;;13.95;11.25;;;;;;;20.23;35.10;103107.66;5096094;28;20044;-82
2022/03/21 03:05:15;;;;;;;11.75;10.55;;;;;;;20.23;35.36;103104.97;5097156;28;20502;-82
2022/03/21 03:07:42;;;;;;;11.68;10.57;;;;;;;20.23;35.45;103111.22;5115230;28;20055;-82
2022/03/21 03:10:09;;;;;;;12.50;10.95;;;;;;;20.24;35.12;103112.09;5096978;28;20051;-82
2022/03/21 03:12:37;;;;;;;11.50;10.40;;;;;;;20.23;35.09;103111.22;5115344;28;20058;-82
2022/03/21 03:15:05;;;;;;;10.35;9.35;;;;;;;20.22;35.19;103109.50;5097493;28;20047;-82
2022/03/21 03:17:33;;;;;;;11.73;10.60;;;;;;;20.22;35.33;103109.50;5116104;28;20051;-82
2022/03/21 03:20:00;;;;;;;12.43;11.13;;;;;;;20.21;35.03;103105.03;5115312;28;20050;-81
2022/03/21 03:22:29;;;;;;;11.90;10.80;;;;;;;20.21;35.33;103105.03;5096595;28;20051;-82
2022/03/21 03:24:57;;;;;;;11.95;10.75;;;;;;;20.21;34.93;103113.09;5114932;28;20048;-82
2022/03/21 03:27:24;;;;;;;13.00;11.38;;;;;;;20.19;35.13;103108.78;5096116;28;20051;-82
2022/03/21 03:29:52;;;;;;;11.30;10.23;;;;;;;20.20;35.11;103110.50;5097661;28;20039;-82
2022/03/21 03:32:19;;;;;;;10.77;9.77;;;;;;;20.21;35.14;103112.25;5098012;28;20490;-82
2022/03/21 03:34:47;;;;;;;12.45;11.35;;;;;;;20.19;34.84;103106.97;5115216;28;20464;-82
2022/03/21 03:37:16;;;;;;;11.60;10.50;;;;;;;20.20;34.79;103115.91;5095723;28;20490;-82
2022/03/21 03:39:44;;;;;;;11.63;10.52;;;;;;;20.18;34.79;103107.91;5114422;28;20055;-83
2022/03/21 03:42:11;;;;;;;11.43;10.32;;;;;;;20.18;35.02;103113.31;5096660;28;20039;-82
2022/03/21 03:44:39;;;;;;;11.55;10.45;;;;;;;20.18;35.14;103109.75;5114992;28;20066;-81
2022/03/21 03:47:06;;;;;;;11.63;10.38;;;;;;;20.18;34.95;103113.31;5097018;28;20040;-81
2022/03/21 03:49:34;;;;;;;11.07;9.98;;;;;;;20.18;35.04;103107.06;5114672;28;20107;-81
2022/03/21 03:52:01;;;;;;;11.75;10.55;;;;;;;20.18;34.93;103109.75;5096602;28;20052;-81
2022/03/21 03:54:29;;;;;;;10.60;9.60;;;;;;;20.17;34.86;103107.97;5114908;28;20040;-82
2022/03/21 03:56:56;;;;;;;10.93;9.73;;;;;;;20.17;34.79;103102.59;5104737;28;20047;-81
2022/03/21 03:59:24;;;;;;;11.75;10.65;;;;;;;20.16;34.87;103109.81;4966303;28;20446;-82
2022/03/21 04:01:51;;;;;;;10.38;9.38;;;;;;;20.14;34.59;103103.66;5012364;28;20104;-83
2022/03/21 04:04:19;;;;;;;11.40;10.30;;;;;;;20.16;34.78;103114.31;4995594;28;20049;-82
2022/03/21 04:06:47;;;;;;;10.93;9.93;;;;;;;20.15;34.65;103104.53;5011553;28;20050;-82
2022/03/21 04:09:14;;;;;;;12.00;10.90;;;;;;;20.15;34.66;103112.59;5011546;28;20109;-82
2022/03/21 04:11:42;;;;;;;12.52;10.02;;;;;;;20.15;34.66;103102.69;4993338;28;20042;-83
2022/03/21 04:14:09;;;;;;;11.48;10.32;;;;;;;20.14;34.53;103109.03;5011250;28;20050;-84
2022/03/21 04:16:44;;;;;;;11.20;10.13;;;;;;;20.15;34.75;103118.84;4997346;28;20050;-84
2022/03/21 04:19:12;;;;;;;11.27;10.18;;;;;;;20.14;34.61;103116.25;5012188;28;20050;-85
2022/03/21 04:21:40;;;;;;;11.93;10.82;;;;;;;20.14;34.48;103118.94;5015052;28;20042;-85
2022/03/21 04:24:08;;;;;;;10.93;9.57;;;;;;;20.15;34.81;103117.97;4997727;28;20054;-84
2022/03/21 04:26:36;;;;;;;11.55;10.43;;;;;;;20.14;34.59;103127.88;4997357;28;20056;-84
2022/03/21 04:29:04;;;;;;;10.90;9.90;;;;;;;20.13;34.83;103125.22;5015120;28;20046;-84
2022/03/21 04:31:32;;;;;;;11.07;10.07;;;;;;;20.12;34.57;103129.75;5014717;28;20045;-85
2022/03/21 04:34:01;;;;;;;12.18;10.98;;;;;;;20.12;34.39;103127.06;5007288;28;20416;-85
2022/03/21 04:36:29;;;;;;;11.73;10.63;;;;;;;20.11;34.79;103133.38;5016871;28;20418;-83
2022/03/21 04:38:57;;;;;;;10.50;9.52;;;;;;;20.12;34.68;103128.88;5016657;28;20048;-85
2022/03/21 04:41:24;;;;;;;11.38;10.27;;;;;;;20.11;34.74;103133.38;5033378;28;20045;-82
2022/03/21 04:43:51;;;;;;;12.48;9.38;;;;;;;20.11;35.00;103133.38;5032258;28;20416;-82
2022/03/21 04:46:19;;;;;;;10.25;9.32;;;;;;;20.11;34.72;103143.28;5031888;28;20053;-84
2022/03/21 04:48:47;;;;;;;11.38;10.32;;;;;;;20.11;34.60;103140.59;5034293;28;20050;-81
2022/03/21 04:51:14;;;;;;;11.65;10.50;;;;;;;20.11;34.53;103144.16;5034307;28;20053;-82
2022/03/21 04:53:41;;;;;;;10.23;9.30;;;;;;;20.10;34.75;103146.94;5016881;28;20053;-82
2022/03/21 04:56:09;;;;;;;10.70;9.63;;;;;;;20.10;34.70;103152.31;5016315;28;20472;-85
2022/03/21 04:58:36;;;;;;;11.95;10.70;;;;;;;20.08;34.80;103152.38;5048570;27;20041;-85
2022/03/21 05:01:04;;;;;;;11.10;10.00;;;;;;;20.08;34.99;103152.38;5015851;28;20049;-85
2022/03/21 05:03:32;;;;;;;10.98;9.95;;;;;;;20.07;34.52;103147.94;5034247;28;20050;-85
2022/03/21 05:06:00;;;;;;;11.80;10.60;;;;;;;20.07;34.60;103150.63;5032113;28;20046;-85
2022/03/21 05:08:28;;;;;;;10.10;9.10;;;;;;;20.06;35.10;103154.28;5033270;28;20061;-85
2022/03/21 05:10:56;;;;;;;11.23;10.13;;;;;;;20.06;34.82;103154.28;5034623;28;20392;-84
2022/03/21 05:13:24;;;;;;;10.32;9.35;;;;;;;20.06;34.70;103153.41;5017741;28;20049;-85
2022/03/21 05:15:52;;;;;;;11.05;9.80;;;;;;;20.05;34.60;103155.22;5049216;28;20057;-85
2022/03/21 05:18:21;;;;;;;11.98;10.70;;;;;;;20.05;34.83;103157.91;5016150;28;20045;-85
2022/03/21 05:20:49;;;;;;;10.07;9.15;;;;;;;20.05;34.60;103165.97;5015909;28;20042;-85
2022/03/21 05:31:33;;;;;;;10.48;9.00;;;;;;;20.03;34.32;103169.72;5033563;28;20045;-84
2022/03/21 05:36:47;;;;;;;10.80;9.80;;;;;;;20.01;34.66;103164.38;5016176;28;20057;-83
2022/03/21 05:39:14;;;;;;;10.60;9.60;;;;;;;19.99;34.47;103169.84;5032138;28;20408;-84
2022/03/21 05:41:42;;;;;;;11.25;9.63;;;;;;;20.00;34.53;103171.59;5033029;28;20052;-84
2022/03/21 05:44:11;;;;;;;11.25;10.02;;;;;;;19.99;34.34;103167.16;5014466;28;20050;-83
2022/03/21 05:46:38;;;;;;;13.20;9.82;;;;;;;19.98;34.35;103178.88;5032817;28;20053;-84
2022/03/21 05:49:06;;;;;;;10.73;9.73;;;;;;;19.99;34.39;103171.69;5032720;28;20397;-84
2022/03/21 05:51:36;;;;;;;11.60;10.45;;;;;;;19.98;34.24;103176.19;5031885;28;20041;-83
2022/03/21 05:54:08;;;;;;;11.20;10.02;;;;;;;19.98;34.22;103172.63;5032414;28;20050;-83
2022/03/21 05:56:37;;;;;;;10.98;9.93;;;;;;;19.97;34.18;103173.56;5033616;28;20046;-83
2022/03/21 06:01:52;;;;;;;10.80;9.73;;;;;;;19.97;34.29;103178.94;5016982;28;20049;-83
2022/03/21 06:04:23;;;;;;;10.40;9.40;;;;;;;19.96;34.06;103180.75;5012474;28;20045;-84
2022/03/21 06:06:51;;;;;;;10.13;9.23;;;;;;;19.97;33.98;103177.16;5011736;28;20045;-84
2022/03/21 06:09:19;;;;;;;10.02;9.13;;;;;;;19.97;34.01;103187.00;4995406;28;20058;-85
2022/03/21 06:11:48;;;;;;;11.02;9.95;;;;;;;19.97;33.95;103195.06;5013760;28;20404;-84
2022/03/21 06:14:20;;;;;;;9.52;8.52;;;;;;;19.97;34.05;103189.69;5013191;28;20053;-84
2022/03/21 06:16:48;;;;;;;9.93;8.98;;;;;;;19.98;34.12;103199.53;5013399;28;20501;-85
2022/03/21 06:19:18;;;;;;;11.02;9.93;;;;;;;19.97;33.99;103197.75;4994397;28;20050;-82
2022/03/21 06:21:46;;;;;;;9.93;8.93;;;;;;;19.97;34.10;103197.75;5010994;28;20061;-84
2022/03/21 06:24:14;;;;;;;10.63;9.52;;;;;;;19.97;34.14;103192.38;4995443;28;20060;-84
2022/03/21 06:26:42;;;;;;;10.18;9.18;;;;;;;19.96;34.18;103202.28;4978863;28;20057;-84
2022/03/21 06:29:09;;;;;;;10.40;9.40;;;;;;;19.96;33.99;103202.28;5011424;28;20053;-84
2022/03/21 06:31:37;;;;;;;9.95;8.95;;;;;;;19.97;33.96;103211.19;4995178;28;20050;-83
2022/03/21 06:34:05;;;;;;;10.20;9.18;;;;;;;19.96;33.96;103202.28;5012871;28;20061;-84
2022/03/21 06:36:33;;;;;;;10.57;9.57;;;;;;;19.97;34.03;103211.19;5015066;28;20060;-83
2022/03/21 06:39:00;;;;;;;10.45;9.13;;;;;;;19.95;33.94;103213.13;4996774;28;20054;-83
2022/03/21 06:41:28;;;;;;;10.98;9.85;;;;;;;19.95;33.80;103222.03;5013138;28;20054;-83
2022/03/21 06:43:56;;;;;;;9.30;8.40;;;;;;;19.96;33.65;103209.47;4993760;28;20100;-83
2022/03/21 06:46:23;;;;;;;10.77;9.20;;;;;;;19.95;33.77;103213.97;4996015;28;20065;-83
2022/03/21 06:48:50;;;;;;;11.13;10.02;;;;;;;19.94;33.79;103223.00;5013305;28;20050;-83
2022/03/21 06:51:24;;;;;;;10.73;9.73;;;;;;;19.95;33.87;103226.56;5012896;28;20532;-83
2022/03/21 06:53:51;;;;;;;11.35;10.15;;;;;;;19.94;33.87;103224.81;4996248;28;20053;-83
2022/03/21 06:56:18;;;;;;;10.75;9.77;;;;;;;19.95;33.89;103229.25;5012136;28;20053;-83
2022/03/21 06:58:45;;;;;;;10.52;9.30;;;;;;;19.94;33.81;103223.00;5012237;28;20049;-83
2022/03/21 07:01:13;;;;;;;10.65;9.27;;;;;;;19.95;33.87;103226.56;5035219;28;20517;-83
2022/03/21 07:03:42;;;;;;;10.05;9.05;;;;;;;19.94;33.79;103227.50;5010664;28;20053;-84
2022/03/21 07:06:09;;;;;;;10.68;9.57;;;;;;;19.94;33.79;103230.19;5030405;28;20046;-84
2022/03/21 07:08:37;;;;;;;10.43;9.35;;;;;;;19.94;33.82;103233.75;5014380;28;20080;-84
2022/03/21 07:11:04;;;;;;;9.90;8.90;;;;;;;19.94;33.60;103232.91;5032514;28;20049;-85
2022/03/21 07:13:32;;;;;;;10.15;9.20;;;;;;;19.94;33.77;103235.59;5014548;28;20053;-85
2022/03/21 07:15:59;;;;;;;9.57;8.57;;;;;;;19.95;33.71;103234.63;5013826;28;20058;-83
2022/03/21 07:18:27;;;;;;;9.82;8.93;;;;;;;19.94;33.87;103230.19;5031488;28;20046;-83
2022/03/21 07:20:55;;;;;;;10.77;8.88;;;;;;;19.95;33.66;103234.63;5013659;28;20056;-83
2022/03/21 07:23:22;;;;;;;9.82;8.93;;;;;;;19.95;33.83;103235.50;5032048;28;20049;-83
2022/03/21 07:25:50;;;;;;;9.48;8.50;;;;;;;19.94;33.66;103236.44;5030712;28;20041;-83
2022/03/21 07:28:17;;;;;;;9.50;8.52;;;;;;;19.95;33.49;103229.25;5013464;28;20045;-83
2022/03/21 07:30:45;;;;;;;10.63;9.38;;;;;;;19.95;33.47;103235.50;5031877;28;20056;-83
2022/03/21 07:33:12;;;;;;;9.57;8.68;;;;;;;19.95;33.70;103235.50;5047157;28;20044;-85
2022/03/21 07:35:41;;;;;;;10.32;8.75;;;;;;;19.96;33.63;103242.59;5032091;28;20045;-81
2022/03/21 07:38:09;;;;;;;9.40;8.50;;;;;;;19.97;33.93;103243.47;5032421;28;20377;-84
2022/03/21 07:40:36;;;;;;;10.43;9.05;;;;;;;19.98;33.67;103245.22;5031422;28;20503;-84
2022/03/21 07:43:04;;;;;;;10.10;8.60;;;;;;;19.98;33.67;103243.41;5030064;28;20053;-84
2022/03/21 07:48:17;;;;;;;10.68;9.43;;;;;;;20.00;33.37;103246.88;5014737;28;20072;-88
2022/03/21 07:50:45;;;;;;;11.00;9.90;;;;;;;20.02;33.90;103246.81;5033605;28;20381;-85
2022/03/21 07:53:12;;;;;;;10.77;8.55;;;;;;;20.05;34.07;103254.69;5015421;28;20077;-84
2022/03/21 07:55:40;;;;;;;10.20;9.20;;;;;;;20.06;33.82;103244.84;5036434;28;20041;-84
2022/03/21 07:58:07;;;;;;;8.73;7.90;;;;;;;20.09;34.38;103250.03;4998073;28;20050;-82
2022/03/21 08:00:35;;;;;;;11.38;9.88;;;;;;;20.09;34.07;103252.72;5033490;27;20051;-84
2022/03/21 08:03:03;;;;;;;15.05;13.57;;;;;;;20.08;32.47;103251.88;5139948;27;20054;-86
2022/03/21 08:05:30;;;;;;;16.20;14.55;;;;;;;20.05;31.78;103249.31;5099896;28;20050;-79
2022/03/21 08:07:58;;;;;;;16.50;14.70;;;;;;;20.05;31.55;103245.78;5033681;28;20052;-79
2022/03/21 08:10:25;;;;;;;18.58;14.07;;;;;;;20.02;31.51;103245.94;5034500;28;20077;-85
2022/03/21 08:12:55;;;;;;;16.85;15.13;;;;;;;20.02;31.31;103240.56;5034800;28;20396;-85
2022/03/21 08:15:23;;;;;;;15.63;14.02;;;;;;;20.00;30.92;103240.63;5001631;28;20049;-84
2022/03/21 08:17:50;;;;;;;16.60;14.68;;;;;;;19.99;30.98;103246.97;5017772;28;20045;-81
2022/03/21 08:20:21;;;;;;;16.13;14.43;;;;;;;19.98;30.76;103247.91;5017077;28;20056;-84
2022/03/21 08:22:50;;;;;;;15.63;14.05;;;;;;;19.98;30.54;103245.22;5017486;28;20050;-83
2022/03/21 08:25:20;;;;;;;16.58;14.85;;;;;;;19.97;30.13;103243.47;5036712;28;20054;-81
2022/03/21 08:27:48;;;;;;;15.30;13.70;;;;;;;19.98;31.66;103248.78;5021746;28;20053;-84
2022/03/21 08:30:17;;;;;;;16.08;14.48;;;;;;;19.98;30.03;103238.03;5035927;28;20057;-89
2022/03/21 08:32:46;;;;;;;16.23;14.27;;;;;;;19.99;31.09;103241.59;5037412;28;20053;-81
2022/03/21 08:35:15;;;;;;;14.82;13.32;;;;;;;20.00;31.38;103249.56;5052457;28;20492;-82
2022/03/21 08:37:43;;;;;;;16.90;14.05;;;;;;;20.00;30.42;103246.88;5035842;28;20045;-86
2022/03/21 08:40:13;;;;;;;15.68;14.05;;;;;;;19.99;30.28;103241.59;5036124;28;20373;-85
2022/03/21 08:42:40;;;;;;;16.55;14.20;;;;;;;19.98;29.92;103245.22;5017583;28;20060;-85
2022/03/21 08:45:09;;;;;;;18.85;15.88;;;;;;;19.99;29.58;103246.97;5017181;28;20480;-81
2022/03/21 08:47:37;;;;;;;15.70;14.20;;;;;;;19.97;29.58;103239.00;5034381;28;20056;-88
2022/03/21 08:50:05;;;;;;;14.68;13.18;;;;;;;19.98;29.51;103239.84;5017043;28;20054;-87
2022/03/21 08:52:33;;;;;;;16.50;14.80;;;;;;;19.99;29.50;103236.22;5034953;28;20046;-83
2022/03/21 08:55:01;;;;;;;17.70;15.10;;;;;;;19.99;29.60;103239.75;5017860;28;20049;-86
2022/03/21 08:57:29;;;;;;;15.48;13.68;;;;;;;19.99;29.58;103237.06;5017097;28;20046;-87
2022/03/21 08:59:56;;;;;;;16.38;14.07;;;;;;;20.00;29.93;103237.94;5043787;28;20054;-80
2022/03/21 09:02:24;;;;;;;15.95;13.75;;;;;;;20.01;30.05;103239.66;4981599;28;20061;-85
2022/03/21 09:04:51;;;;;;;14.27;12.13;;;;;;;20.02;30.58;103241.44;5013919;28;20045;-77
2022/03/21 09:07:19;;;;;;;15.25;12.25;;;;;;;20.05;30.56;103233.19;5014385;28;20046;-81
2022/03/21 09:09:46;;;;;;;13.75;11.35;;;;;;;20.06;30.57;103240.34;5015349;28;20061;-89
2022/03/21 09:12:13;;;;;;;19.48;14.27;;;;;;;20.05;29.31;103238.56;5000450;28;20061;-87
2022/03/21 09:14:41;;;;;;;16.58;13.40;;;;;;;20.02;29.24;103227.13;4998798;28;20050;-86
2022/03/21 09:17:09;;;;;;;14.82;13.27;;;;;;;20.03;30.31;103231.56;4998240;28;20072;-81
2022/03/21 09:19:36;;;;;;;14.23;12.73;;;;;;;20.02;29.21;103228.00;5012485;28;20497;-82
2022/03/21 09:22:04;;;;;;;16.05;13.82;;;;;;;20.02;29.39;103235.19;5012745;28;20053;-85
2022/03/21 09:24:32;;;;;;;15.02;13.50;;;;;;;19.99;28.89;103233.53;5013500;28;20053;-82
2022/03/21 09:27:00;;;;;;;15.73;12.70;;;;;;;19.98;28.98;103224.59;5014166;28;20041;-89
2022/03/21 09:29:27;;;;;;;14.48;13.00;;;;;;;19.97;28.75;103221.97;5013021;28;20053;-88
2022/03/21 09:31:54;;;;;;;18.10;14.25;;;;;;;19.96;28.74;103226.47;4998043;28;20390;-80
2022/03/21 09:34:22;;;;;;;14.60;12.90;;;;;;;19.96;28.80;103215.72;5013796;28;20050;-79
2022/03/21 09:36:50;;;;;;;16.50;13.10;;;;;;;19.97;30.13;103217.47;5015073;28;20046;-88
2022/03/21 09:39:18;;;;;;;13.35;12.00;;;;;;;20.01;30.79;103220.84;5014657;28;20056;-84
2022/03/21 09:41:46;;;;;;;13.75;11.35;;;;;;;20.04;31.16;103223.41;5014963;28;20042;-82
2022/03/21 09:44:14;;;;;;;13.95;11.45;;;;;;;20.06;31.17;103213.44;5014574;28;20042;-86
2022/03/21 09:46:44;;;;;;;12.18;10.98;;;;;;;20.08;30.96;103218.72;4997088;28;20050;-89
2022/03/21 09:49:16;;;;;;;12.52;10.23;;;;;;;20.09;31.07;103215.94;4998485;28;20046;-86
2022/03/21 09:51:45;;;;;;;12.90;10.98;;;;;;;20.09;30.90;103215.09;4998660;28;20062;-86
2022/03/21 09:54:13;;;;;;;12.38;11.07;;;;;;;20.11;30.97;103219.44;5014252;28;20038;-87
2022/03/21 09:56:41;;;;;;;13.32;10.60;;;;;;;20.11;30.85;103206.00;5014626;28;20054;-85
2022/03/21 09:59:08;;;;;;;10.95;9.82;;;;;;;20.12;30.88;103207.72;5014926;28;20050;-86
2022/03/21 10:01:37;;;;;;;12.48;10.27;;;;;;;20.14;30.89;103210.38;5018346;28;20053;-86
2022/03/21 10:04:07;;;;;;;11.02;9.93;;;;;;;20.14;30.91;103205.84;5035879;28;20048;-88
2022/03/21 10:06:40;;;;;;;11.57;10.38;;;;;;;20.14;31.06;103196.91;5016847;28;20057;-86
2022/03/21 10:09:10;;;;;;;12.18;9.98;;;;;;;20.15;31.49;103204.91;5034457;28;20067;-82
2022/03/21 10:11:40;;;;;;;11.95;10.30;;;;;;;20.16;31.13;103206.63;5034583;28;20053;-88
2022/03/21 10:14:32;;;;;;;11.18;9.10;;;;;;;20.17;31.22;103204.81;5033170;28;20045;-87
2022/03/21 10:17:03;;;;;;;12.77;9.30;;;;;;;20.17;31.14;103212.88;5031743;28;20080;-87
2022/03/21 10:19:52;;;;;;;10.63;9.52;;;;;;;20.18;31.18;103211.94;5015739;28;20061;-87
2022/03/21 10:22:36;;;;;;;10.43;8.90;;;;;;;20.19;30.96;103211.84;4999460;28;20045;-84
2022/03/21 10:25:08;;;;;;;10.00;9.00;;;;;;;20.17;31.38;103207.50;5016353;28;20054;-87
2022/03/21 10:27:38;;;;;;;10.68;9.57;;;;;;;20.18;31.11;103201.19;5034401;28;20481;-87
2022/03/21 10:30:09;;;;;;;9.05;8.00;;;;;;;20.20;31.35;103208.19;4997506;28;20496;-88
2022/03/21 10:32:51;;;;;;;9.48;8.48;;;;;;;20.20;31.71;103197.44;5032260;28;20045;-88
2022/03/21 10:35:23;;;;;;;10.73;8.80;;;;;;;20.18;31.59;103202.06;5031045;28;20045;-90
2022/03/21 10:38:02;;;;;;;9.13;8.23;;;;;;;20.19;31.28;103192.16;5033603;28;20060;-89
2022/03/21 10:40:32;;;;;;;11.27;9.38;;;;;;;20.19;31.48;103192.16;5032736;28;20045;-87
2022/03/21 10:43:09;;;;;;;11.27;9.15;;;;;;;20.20;31.93;103188.50;5015656;28;20041;-90
2022/03/21 10:45:37;;;;;;;8.93;8.13;;;;;;;20.21;31.78;103191.09;5034891;28;20049;-88
2022/03/21 10:48:26;;;;;;;9.07;7.93;;;;;;;20.21;31.94;103188.41;5033830;28;20049;-88
2022/03/21 10:50:55;;;;;;;9.30;7.97;;;;;;;20.20;31.29;103178.63;5015899;28;20057;-83
2022/03/21 10:53:22;;;;;;;9.10;8.10;;;;;;;20.20;31.38;103185.81;5033432;28;20037;-89
2022/03/21 10:56:02;;;;;;;9.60;7.97;;;;;;;20.20;31.46;103184.00;5033797;28;20052;-89
2022/03/21 10:58:50;;;;;;;9.35;8.38;;;;;;;20.22;31.44;103175.88;4999756;28;20067;-87
2022/03/21 11:01:24;;;;;;;9.25;7.68;;;;;;;20.21;31.32;103169.59;5028654;28;20054;-89
2022/03/21 11:03:57;;;;;;;9.90;8.10;;;;;;;20.22;32.21;103176.72;5029909;28;20042;-89
2022/03/21 11:06:27;;;;;;;10.90;8.30;;;;;;;20.23;32.89;103175.78;5032870;28;20045;-88
2022/03/21 11:08:55;;;;;;;10.50;8.52;;;;;;;20.23;33.45;103164.16;5032099;28;20068;-88
2022/03/21 11:11:23;;;;;;;8.13;7.32;;;;;;;20.24;31.89;103161.38;5031562;28;20049;-84
2022/03/21 11:13:54;;;;;;;9.13;7.88;;;;;;;20.25;31.80;103156.84;5032622;28;20053;-85
2022/03/21 11:16:22;;;;;;;7.13;6.43;;;;;;;20.25;31.77;103156.84;5032457;28;20512;-84
2022/03/21 11:18:54;;;;;;;9.35;7.72;;;;;;;20.24;31.57;103153.31;5031635;28;20049;-80
2022/03/21 11:21:23;;;;;;;8.55;7.50;;;;;;;20.25;31.55;103146.09;5032168;28;20060;-83
2022/03/21 11:23:51;;;;;;;8.50;7.35;;;;;;;20.24;31.97;103138.97;5031022;28;20072;-85
2022/03/21 11:26:31;;;;;;;7.88;7.05;;;;;;;20.23;31.78;103135.44;5030535;28;20057;-83
2022/03/21 11:29:10;;;;;;;8.35;7.55;;;;;;;20.24;32.01;103129.09;5032220;28;20064;-85
2022/03/21 11:32:08;;;;;;;8.23;6.68;;;;;;;20.25;31.89;103125.47;5036289;28;20056;-87
2022/03/21 11:34:48;;;;;;;10.10;7.78;;;;;;;20.27;31.99;103121.81;5017387;28;20408;-84
2022/03/21 11:37:30;;;;;;;8.05;7.30;;;;;;;20.27;32.15;103122.69;5036231;28;20068;-81
2022/03/21 11:40:24;;;;;;;8.55;7.10;;;;;;;20.27;32.00;103120.00;5035347;28;20504;-82
2022/03/21 11:42:51;;;;;;;;;;;;;;;20.27;32.27;103111.06;4978208;28;20062;-80